Boden, Illinois
Current Conditions -  °F | °C
As of 9:52 AM on Monday 24 Nov 2014 (Local Time) from KMLI Reporting Station
Light Snow Light Snow  
Wind Chill: -8°   Ceiling: 1500
Heat Index: -1°   Visibility: 2mi
Dew Point: -3°   Wind: 22mph
Humidity: 85%   Direction: 270°W
Pressure: 29.41"   Gusts: NA
Location:  41.2864°N, 90.4945°W
Report Text: KMLI 241552Z 27019KT 2SM -SN BR BKN015 OVC023 M01/M03 A2941 RMK AO2 PK WND 27035/1538 UPB40E51SNE13B23E40B51 SLP962 P0000 T10111033
Loading
Personal Weather Stations






























Interactive Weather Map New forecast layout! Learn more

10-Day Weather Forecast

Advertisements
Track Severe Weather on mobile